sensor_id;sensor_type;location;lat;lon;timestamp;temperature;humidity
16327;DHT22;34812;49.846;9.610;2022-12-07T00:00:32;2.30;99.90
16327;DHT22;34812;49.846;9.610;2022-12-07T00:01:35;2.30;99.90
16327;DHT22;34812;49.846;9.610;2022-12-07T00:02:40;2.20;99.90
16327;DHT22;34812;49.846;9.610;2022-12-07T00:03:42;2.20;99.90
16327;DHT22;34812;49.846;9.610;2022-12-07T00:04:44;2.20;99.90
16327;DHT22;34812;49.846;9.610;2022-12-07T00:05:45;2.30;99.90
16327;DHT22;34812;49.846;9.610;2022-12-07T00:06:50;2.30;99.90
16327;DHT22;34812;49.846;9.610;2022-12-07T00:07:52;2.30;99.90
16327;DHT22;34812;49.846;9.610;2022-12-07T00:08:53;2.30;99.90
16327;DHT22;34812;49.846;9.610;2022-12-07T00:09:54;2.30;99.90
16327;DHT22;34812;49.846;9.610;2022-12-07T00:11:01;2.30;99.90
16327;DHT22;34812;49.846;9.610;2022-12-07T00:12:02;2.30;99.90
16327;DHT22;34812;49.846;9.610;2022-12-07T00:13:04;2.30;99.90
16327;DHT22;34812;49.846;9.610;2022-12-07T00:14:07;2.30;99.90
16327;DHT22;34812;49.846;9.610;2022-12-07T00:15:09;2.40;99.90
16327;DHT22;34812;49.846;9.610;2022-12-07T00:16:13;2.40;99.90
16327;DHT22;34812;49.846;9.610;2022-12-07T00:17:16;2.40;99.90
16327;DHT22;34812;49.846;9.610;2022-12-07T00:18:18;2.40;99.90
16327;DHT22;34812;49.846;9.610;2022-12-07T00:19:19;2.40;99.90
16327;DHT22;34812;49.846;9.610;2022-12-07T00:20:20;2.40;99.90
16327;DHT22;34812;49.846;9.610;2022-12-07T00:21:24;2.40;99.90
16327;DHT22;34812;49.846;9.610;2022-12-07T00:22:25;2.40;99.90
16327;DHT22;34812;49.846;9.610;2022-12-07T00:23:26;2.40;99.90
16327;DHT22;34812;49.846;9.610;2022-12-07T00:24:27;2.50;99.90
16327;DHT22;34812;49.846;9.610;2022-12-07T00:25:30;2.50;99.90
16327;DHT22;34812;49.846;9.610;2022-12-07T00:26:33;2.50;99.90
16327;DHT22;34812;49.846;9.610;2022-12-07T00:27:35;2.50;99.90
16327;DHT22;34812;49.846;9.610;2022-12-07T00:28:36;2.50;99.90
16327;DHT22;34812;49.846;9.610;2022-12-07T00:29:38;2.50;99.90
16327;DHT22;34812;49.846;9.610;2022-12-07T00:30:39;2.50;99.90
16327;DHT22;34812;49.846;9.610;2022-12-07T00:31:40;2.50;99.90
16327;DHT22;34812;49.846;9.610;2022-12-07T00:32:41;2.50;99.90
16327;DHT22;34812;49.846;9.610;2022-12-07T00:33:44;2.50;99.90
16327;DHT22;34812;49.846;9.610;2022-12-07T00:34:45;2.40;99.90
16327;DHT22;34812;49.846;9.610;2022-12-07T00:35:55;2.40;99.90
16327;DHT22;34812;49.846;9.610;2022-12-07T00:36:55;2.40;99.90
16327;DHT22;34812;49.846;9.610;2022-12-07T00:37:57;2.40;99.90
16327;DHT22;34812;49.846;9.610;2022-12-07T00:38:59;2.40;99.90
16327;DHT22;34812;49.846;9.610;2022-12-07T00:40:00;2.40;99.90
16327;DHT22;34812;49.846;9.610;2022-12-07T00:41:03;2.40;99.90
16327;DHT22;34812;49.846;9.610;2022-12-07T00:42:05;2.40;99.90
16327;DHT22;34812;49.846;9.610;2022-12-07T00:43:07;2.30;99.90
16327;DHT22;34812;49.846;9.610;2022-12-07T00:44:07;2.30;99.90
16327;DHT22;34812;49.846;9.610;2022-12-07T00:45:09;2.30;99.90
16327;DHT22;34812;49.846;9.610;2022-12-07T00:46:11;2.40;99.90
16327;DHT22;34812;49.846;9.610;2022-12-07T00:47:12;2.40;99.90
16327;DHT22;34812;49.846;9.610;2022-12-07T00:48:13;2.40;99.90
16327;DHT22;34812;49.846;9.610;2022-12-07T00:49:16;2.30;99.90
16327;DHT22;34812;49.846;9.610;2022-12-07T00:50:18;2.30;99.90
16327;DHT22;34812;49.846;9.610;2022-12-07T00:51:20;2.30;99.90
16327;DHT22;34812;49.846;9.610;2022-12-07T00:52:22;2.30;99.90
16327;DHT22;34812;49.846;9.610;2022-12-07T00:53:23;2.30;99.90
16327;DHT22;34812;49.846;9.610;2022-12-07T00:54:25;2.30;99.90
16327;DHT22;34812;49.846;9.610;2022-12-07T00:55:26;2.30;99.90
16327;DHT22;34812;49.846;9.610;2022-12-07T00:56:28;2.30;99.90
16327;DHT22;34812;49.846;9.610;2022-12-07T00:57:31;2.20;99.90
16327;DHT22;34812;49.846;9.610;2022-12-07T00:58:33;2.30;99.90
16327;DHT22;34812;49.846;9.610;2022-12-07T00:59:34;2.30;99.90
16327;DHT22;34812;49.846;9.610;2022-12-07T01:00:37;2.30;99.90
16327;DHT22;34812;49.846;9.610;2022-12-07T01:01:38;2.30;99.90
16327;DHT22;34812;49.846;9.610;2022-12-07T01:02:40;2.30;99.90
16327;DHT22;34812;49.846;9.610;2022-12-07T01:03:40;2.30;99.90
16327;DHT22;34812;49.846;9.610;2022-12-07T01:04:43;2.30;99.90
16327;DHT22;34812;49.846;9.610;2022-12-07T01:05:52;2.40;99.90
16327;DHT22;34812;49.846;9.610;2022-12-07T01:06:54;2.40;99.90
16327;DHT22;34812;49.846;9.610;2022-12-07T01:07:56;2.40;99.90
16327;DHT22;34812;49.846;9.610;2022-12-07T01:08:57;2.40;99.90
16327;DHT22;34812;49.846;9.610;2022-12-07T01:09:58;2.40;99.90
16327;DHT22;34812;49.846;9.610;2022-12-07T01:11:01;2.40;99.90
16327;DHT22;34812;49.846;9.610;2022-12-07T01:12:04;2.40;99.90
16327;DHT22;34812;49.846;9.610;2022-12-07T01:13:05;2.50;99.90
16327;DHT22;34812;49.846;9.610;2022-12-07T01:14:06;2.50;99.90
16327;DHT22;34812;49.846;9.610;2022-12-07T01:15:09;2.50;99.90
16327;DHT22;34812;49.846;9.610;2022-12-07T01:16:11;2.50;99.90
16327;DHT22;34812;49.846;9.610;2022-12-07T01:17:13;2.60;99.90
16327;DHT22;34812;49.846;9.610;2022-12-07T01:18:14;2.60;99.90
16327;DHT22;34812;49.846;9.610;2022-12-07T01:19:15;2.50;99.90
16327;DHT22;34812;49.846;9.610;2022-12-07T01:20:18;2.60;99.90
16327;DHT22;34812;49.846;9.610;2022-12-07T01:21:22;2.60;99.90
16327;DHT22;34812;49.846;9.610;2022-12-07T01:22:24;2.60;99.90
16327;DHT22;34812;49.846;9.610;2022-12-07T01:23:24;2.60;99.90
16327;DHT22;34812;49.846;9.610;2022-12-07T01:24:26;2.60;99.90
16327;DHT22;34812;49.846;9.610;2022-12-07T01:25:27;2.60;99.90
16327;DHT22;34812;49.846;9.610;2022-12-07T01:26:29;2.60;99.90
16327;DHT22;34812;49.846;9.610;2022-12-07T01:27:29;2.60;99.90
16327;DHT22;34812;49.846;9.610;2022-12-07T01:28:31;2.60;99.90
16327;DHT22;34812;49.846;9.610;2022-12-07T01:29:33;2.60;99.90
16327;DHT22;34812;49.846;9.610;2022-12-07T01:30:34;2.60;99.90
16327;DHT22;34812;49.846;9.610;2022-12-07T01:31:35;2.60;99.90
16327;DHT22;34812;49.846;9.610;2022-12-07T01:32:37;2.60;99.90
16327;DHT22;34812;49.846;9.610;2022-12-07T01:33:38;2.70;99.90
16327;DHT22;34812;49.846;9.610;2022-12-07T01:34:40;2.70;99.90
16327;DHT22;34812;49.846;9.610;2022-12-07T01:35:42;2.70;99.90
16327;DHT22;34812;49.846;9.610;2022-12-07T01:36:44;2.70;99.90
16327;DHT22;34812;49.846;9.610;2022-12-07T01:37:45;2.70;99.90
16327;DHT22;34812;49.846;9.610;2022-12-07T01:38:48;2.70;99.90
16327;DHT22;34812;49.846;9.610;2022-12-07T01:39:49;2.70;99.90
16327;DHT22;34812;49.846;9.610;2022-12-07T01:40:54;2.70;99.90
16327;DHT22;34812;49.846;9.610;2022-12-07T01:41:55;2.70;99.90
16327;DHT22;34812;49.846;9.610;2022-12-07T01:42:57;2.70;99.90
16327;DHT22;34812;49.846;9.610;2022-12-07T01:44:11;2.70;99.90
16327;DHT22;34812;49.846;9.610;2022-12-07T01:45:43;2.70;99.90
16327;DHT22;34812;49.846;9.610;2022-12-07T01:46:45;2.70;99.90
16327;DHT22;34812;49.846;9.610;2022-12-07T01:47:52;2.70;99.90
16327;DHT22;34812;49.846;9.610;2022-12-07T01:48:53;2.70;99.90
16327;DHT22;34812;49.846;9.610;2022-12-07T01:49:55;2.70;99.90
16327;DHT22;34812;49.846;9.610;2022-12-07T01:51:01;2.70;99.90
16327;DHT22;34812;49.846;9.610;2022-12-07T01:52:18;2.70;99.90
16327;DHT22;34812;49.846;9.610;2022-12-07T01:53:21;2.70;99.90
16327;DHT22;34812;49.846;9.610;2022-12-07T01:54:26;2.80;99.90
16327;DHT22;34812;49.846;9.610;2022-12-07T01:55:27;2.80;99.90
16327;DHT22;34812;49.846;9.610;2022-12-07T01:56:29;2.70;99.90
16327;DHT22;34812;49.846;9.610;2022-12-07T01:57:31;2.80;99.90
16327;DHT22;34812;49.846;9.610;2022-12-07T01:58:34;2.80;99.90
16327;DHT22;34812;49.846;9.610;2022-12-07T01:59:35;2.80;99.90
16327;DHT22;34812;49.846;9.610;2022-12-07T02:00:37;2.70;99.90
16327;DHT22;34812;49.846;9.610;2022-12-07T02:01:38;2.80;99.90
16327;DHT22;34812;49.846;9.610;2022-12-07T02:02:44;2.70;99.90
16327;DHT22;34812;49.846;9.610;2022-12-07T02:03:46;2.70;99.90
16327;DHT22;34812;49.846;9.610;2022-12-07T02:04:49;2.70;99.90
16327;DHT22;34812;49.846;9.610;2022-12-07T02:05:51;2.70;99.90
16327;DHT22;34812;49.846;9.610;2022-12-07T02:06:56;2.70;99.90
16327;DHT22;34812;49.846;9.610;2022-12-07T02:07:58;2.70;99.90
16327;DHT22;34812;49.846;9.610;2022-12-07T02:09:00;2.70;99.90
16327;DHT22;34812;49.846;9.610;2022-12-07T02:10:12;2.70;99.90
16327;DHT22;34812;49.846;9.610;2022-12-07T02:11:15;2.70;99.90
16327;DHT22;34812;49.846;9.610;2022-12-07T02:12:16;2.70;99.90
16327;DHT22;34812;49.846;9.610;2022-12-07T02:13:19;2.70;99.90
16327;DHT22;34812;49.846;9.610;2022-12-07T02:14:21;2.70;99.90
16327;DHT22;34812;49.846;9.610;2022-12-07T02:15:27;2.70;99.90
16327;DHT22;34812;49.846;9.610;2022-12-07T02:16:34;2.70;99.90
16327;DHT22;34812;49.846;9.610;2022-12-07T02:17:45;2.70;99.90
16327;DHT22;34812;49.846;9.610;2022-12-07T02:18:57;2.80;99.90
16327;DHT22;34812;49.846;9.610;2022-12-07T02:20:27;2.80;99.90
16327;DHT22;34812;49.846;9.610;2022-12-07T02:21:34;2.70;99.90
16327;DHT22;34812;49.846;9.610;2022-12-07T02:22:52;2.70;99.90
16327;DHT22;34812;49.846;9.610;2022-12-07T02:24:29;2.70;99.90
16327;DHT22;34812;49.846;9.610;2022-12-07T02:25:57;2.70;99.90
16327;DHT22;34812;49.846;9.610;2022-12-07T02:27:27;2.70;99.90
16327;DHT22;34812;49.846;9.610;2022-12-07T02:28:37;2.70;99.90
16327;DHT22;34812;49.846;9.610;2022-12-07T02:29:44;2.70;99.90
16327;DHT22;34812;49.846;9.610;2022-12-07T02:30:48;2.70;99.90
16327;DHT22;34812;49.846;9.610;2022-12-07T02:31:56;2.70;99.90
16327;DHT22;34812;49.846;9.610;2022-12-07T02:33:04;2.80;99.90
16327;DHT22;34812;49.846;9.610;2022-12-07T02:34:09;2.70;99.90
16327;DHT22;34812;49.846;9.610;2022-12-07T02:35:19;2.80;99.90
16327;DHT22;34812;49.846;9.610;2022-12-07T02:36:22;2.70;99.90
16327;DHT22;34812;49.846;9.610;2022-12-07T02:37:34;2.80;99.90
16327;DHT22;34812;49.846;9.610;2022-12-07T02:38:43;2.80;99.90
16327;DHT22;34812;49.846;9.610;2022-12-07T02:39:50;2.80;99.90
16327;DHT22;34812;49.846;9.610;2022-12-07T02:40:55;2.80;99.90
16327;DHT22;34812;49.846;9.610;2022-12-07T02:42:02;2.80;99.90
16327;DHT22;34812;49.846;9.610;2022-12-07T02:43:12;2.80;99.90
16327;DHT22;34812;49.846;9.610;2022-12-07T02:44:18;2.80;99.90
16327;DHT22;34812;49.846;9.610;2022-12-07T02:45:22;2.80;99.90
16327;DHT22;34812;49.846;9.610;2022-12-07T02:46:28;2.80;99.90
16327;DHT22;34812;49.846;9.610;2022-12-07T02:47:32;2.80;99.90
16327;DHT22;34812;49.846;9.610;2022-12-07T02:48:36;2.80;99.90
16327;DHT22;34812;49.846;9.610;2022-12-07T02:49:38;2.90;99.90
16327;DHT22;34812;49.846;9.610;2022-12-07T02:50:45;2.90;99.90
16327;DHT22;34812;49.846;9.610;2022-12-07T02:51:46;2.90;99.90
16327;DHT22;34812;49.846;9.610;2022-12-07T02:52:48;2.90;99.90
16327;DHT22;34812;49.846;9.610;2022-12-07T02:53:49;2.90;99.90
16327;DHT22;34812;49.846;9.610;2022-12-07T02:54:50;2.90;99.90
16327;DHT22;34812;49.846;9.610;2022-12-07T02:55:51;2.80;99.90
16327;DHT22;34812;49.846;9.610;2022-12-07T02:57:00;2.90;99.90
16327;DHT22;34812;49.846;9.610;2022-12-07T02:58:20;2.90;99.90
16327;DHT22;34812;49.846;9.610;2022-12-07T02:59:30;2.90;99.90
16327;DHT22;34812;49.846;9.610;2022-12-07T03:00:44;2.90;99.90
16327;DHT22;34812;49.846;9.610;2022-12-07T03:01:55;2.80;99.90
16327;DHT22;34812;49.846;9.610;2022-12-07T03:03:06;2.90;99.90
16327;DHT22;34812;49.846;9.610;2022-12-07T03:04:23;2.90;99.90
16327;DHT22;34812;49.846;9.610;2022-12-07T03:05:54;2.90;99.90
16327;DHT22;34812;49.846;9.610;2022-12-07T03:07:05;2.90;99.90
16327;DHT22;34812;49.846;9.610;2022-12-07T03:08:13;2.90;99.90
16327;DHT22;34812;49.846;9.610;2022-12-07T03:09:21;2.90;99.90
16327;DHT22;34812;49.846;9.610;2022-12-07T03:10:35;2.90;99.90
16327;DHT22;34812;49.846;9.610;2022-12-07T03:11:47;2.90;99.90
16327;DHT22;34812;49.846;9.610;2022-12-07T03:12:53;2.90;99.90
16327;DHT22;34812;49.846;9.610;2022-12-07T03:14:01;2.90;99.90
16327;DHT22;34812;49.846;9.610;2022-12-07T03:15:09;2.90;99.90
16327;DHT22;34812;49.846;9.610;2022-12-07T03:16:14;2.90;99.90
16327;DHT22;34812;49.846;9.610;2022-12-07T03:17:19;2.90;99.90
16327;DHT22;34812;49.846;9.610;2022-12-07T03:18:25;2.80;99.90
16327;DHT22;34812;49.846;9.610;2022-12-07T03:19:27;2.90;99.90
16327;DHT22;34812;49.846;9.610;2022-12-07T03:20:29;2.80;99.90
16327;DHT22;34812;49.846;9.610;2022-12-07T03:21:33;2.90;99.90
16327;DHT22;34812;49.846;9.610;2022-12-07T03:22:36;2.80;99.90
16327;DHT22;34812;49.846;9.610;2022-12-07T03:23:41;2.90;99.90
16327;DHT22;34812;49.846;9.610;2022-12-07T03:24:46;2.90;99.90
16327;DHT22;34812;49.846;9.610;2022-12-07T03:25:54;2.90;99.90
16327;DHT22;34812;49.846;9.610;2022-12-07T03:27:01;2.90;99.90
16327;DHT22;34812;49.846;9.610;2022-12-07T03:28:05;2.90;99.90
16327;DHT22;34812;49.846;9.610;2022-12-07T03:29:10;2.80;99.90
16327;DHT22;34812;49.846;9.610;2022-12-07T03:30:16;2.90;99.90
16327;DHT22;34812;49.846;9.610;2022-12-07T03:31:22;2.90;99.90
16327;DHT22;34812;49.846;9.610;2022-12-07T03:32:29;2.80;99.90
16327;DHT22;34812;49.846;9.610;2022-12-07T03:33:35;2.90;99.90
16327;DHT22;34812;49.846;9.610;2022-12-07T03:34:45;2.80;99.90
16327;DHT22;34812;49.846;9.610;2022-12-07T03:35:50;2.80;99.90
16327;DHT22;34812;49.846;9.610;2022-12-07T03:36:56;2.80;99.90
16327;DHT22;34812;49.846;9.610;2022-12-07T03:38:02;2.80;99.90
16327;DHT22;34812;49.846;9.610;2022-12-07T03:39:14;2.80;99.90
16327;DHT22;34812;49.846;9.610;2022-12-07T03:40:21;2.80;99.90
16327;DHT22;34812;49.846;9.610;2022-12-07T03:41:27;2.80;99.90
16327;DHT22;34812;49.846;9.610;2022-12-07T03:42:29;2.70;99.90
16327;DHT22;34812;49.846;9.610;2022-12-07T03:43:31;2.70;99.90
16327;DHT22;34812;49.846;9.610;2022-12-07T03:44:32;2.80;99.90
16327;DHT22;34812;49.846;9.610;2022-12-07T03:45:39;2.80;99.90
16327;DHT22;34812;49.846;9.610;2022-12-07T03:46:45;2.80;99.90
16327;DHT22;34812;49.846;9.610;2022-12-07T03:47:56;2.80;99.90
16327;DHT22;34812;49.846;9.610;2022-12-07T03:49:04;2.80;99.90
16327;DHT22;34812;49.846;9.610;2022-12-07T03:50:12;2.80;99.90
16327;DHT22;34812;49.846;9.610;2022-12-07T03:51:20;2.80;99.90
16327;DHT22;34812;49.846;9.610;2022-12-07T03:52:27;2.80;99.90
16327;DHT22;34812;49.846;9.610;2022-12-07T03:53:36;2.80;99.90
16327;DHT22;34812;49.846;9.610;2022-12-07T03:54:42;2.80;99.90
16327;DHT22;34812;49.846;9.610;2022-12-07T03:55:46;2.80;99.90
16327;DHT22;34812;49.846;9.610;2022-12-07T03:56:48;2.80;99.90
16327;DHT22;34812;49.846;9.610;2022-12-07T03:57:55;2.80;99.90
16327;DHT22;34812;49.846;9.610;2022-12-07T03:58:57;2.80;99.90
16327;DHT22;34812;49.846;9.610;2022-12-07T03:59:59;2.80;99.90
16327;DHT22;34812;49.846;9.610;2022-12-07T04:01:00;2.80;99.90
16327;DHT22;34812;49.846;9.610;2022-12-07T04:02:06;2.90;99.90
16327;DHT22;34812;49.846;9.610;2022-12-07T04:03:08;2.80;99.90
16327;DHT22;34812;49.846;9.610;2022-12-07T04:04:09;2.80;99.90
16327;DHT22;34812;49.846;9.610;2022-12-07T04:05:11;2.80;99.90
16327;DHT22;34812;49.846;9.610;2022-12-07T04:06:12;2.80;99.90
16327;DHT22;34812;49.846;9.610;2022-12-07T04:07:13;2.80;99.90
16327;DHT22;34812;49.846;9.610;2022-12-07T04:08:14;2.80;99.90
16327;DHT22;34812;49.846;9.610;2022-12-07T04:09:16;2.90;99.90
16327;DHT22;34812;49.846;9.610;2022-12-07T04:10:18;2.90;99.90
16327;DHT22;34812;49.846;9.610;2022-12-07T04:11:20;2.90;99.90
16327;DHT22;34812;49.846;9.610;2022-12-07T04:12:21;3.00;99.90
16327;DHT22;34812;49.846;9.610;2022-12-07T04:13:23;2.90;99.90
16327;DHT22;34812;49.846;9.610;2022-12-07T04:14:24;3.00;99.90
16327;DHT22;34812;49.846;9.610;2022-12-07T04:15:26;2.90;99.90
16327;DHT22;34812;49.846;9.610;2022-12-07T04:16:26;3.00;99.90
16327;DHT22;34812;49.846;9.610;2022-12-07T04:17:29;3.00;99.90
16327;DHT22;34812;49.846;9.610;2022-12-07T04:18:31;3.00;99.90
16327;DHT22;34812;49.846;9.610;2022-12-07T04:19:33;3.00;99.90
16327;DHT22;34812;49.846;9.610;2022-12-07T04:20:35;3.00;99.90
16327;DHT22;34812;49.846;9.610;2022-12-07T04:21:36;3.00;99.90
16327;DHT22;34812;49.846;9.610;2022-12-07T04:22:38;3.00;99.90
16327;DHT22;34812;49.846;9.610;2022-12-07T04:23:38;3.00;99.90
16327;DHT22;34812;49.846;9.610;2022-12-07T04:24:39;3.00;99.90
16327;DHT22;34812;49.846;9.610;2022-12-07T04:25:41;3.00;99.90
16327;DHT22;34812;49.846;9.610;2022-12-07T04:26:42;3.10;99.90
16327;DHT22;34812;49.846;9.610;2022-12-07T04:27:44;3.10;99.90
16327;DHT22;34812;49.846;9.610;2022-12-07T04:28:45;3.10;99.90
16327;DHT22;34812;49.846;9.610;2022-12-07T04:29:47;3.00;99.90
16327;DHT22;34812;49.846;9.610;2022-12-07T04:30:47;3.00;99.90
16327;DHT22;34812;49.846;9.610;2022-12-07T04:31:50;3.00;99.90
16327;DHT22;34812;49.846;9.610;2022-12-07T04:32:52;3.10;99.90
16327;DHT22;34812;49.846;9.610;2022-12-07T04:33:53;3.00;99.90
16327;DHT22;34812;49.846;9.610;2022-12-07T04:34:54;3.00;99.90
16327;DHT22;34812;49.846;9.610;2022-12-07T04:35:56;3.00;99.90
16327;DHT22;34812;49.846;9.610;2022-12-07T04:36:57;3.00;99.90
16327;DHT22;34812;49.846;9.610;2022-12-07T04:37:59;3.00;99.90
16327;DHT22;34812;49.846;9.610;2022-12-07T04:39:00;3.00;99.90
16327;DHT22;34812;49.846;9.610;2022-12-07T04:40:02;3.00;99.90
16327;DHT22;34812;49.846;9.610;2022-12-07T04:41:05;3.00;99.90
16327;DHT22;34812;49.846;9.610;2022-12-07T04:42:07;3.00;99.90
16327;DHT22;34812;49.846;9.610;2022-12-07T04:43:08;3.10;99.90
16327;DHT22;34812;49.846;9.610;2022-12-07T04:44:09;3.00;99.90
16327;DHT22;34812;49.846;9.610;2022-12-07T04:45:11;3.00;99.90
16327;DHT22;34812;49.846;9.610;2022-12-07T04:46:13;3.00;99.90
16327;DHT22;34812;49.846;9.610;2022-12-07T04:47:14;3.00;99.90
16327;DHT22;34812;49.846;9.610;2022-12-07T04:48:17;3.00;99.90
16327;DHT22;34812;49.846;9.610;2022-12-07T04:49:18;3.00;99.90
16327;DHT22;34812;49.846;9.610;2022-12-07T04:50:20;3.00;99.90
16327;DHT22;34812;49.846;9.610;2022-12-07T04:51:23;2.90;99.90
16327;DHT22;34812;49.846;9.610;2022-12-07T04:52:25;2.90;99.90
16327;DHT22;34812;49.846;9.610;2022-12-07T04:53:26;2.90;99.90
16327;DHT22;34812;49.846;9.610;2022-12-07T04:54:28;2.90;99.90
16327;DHT22;34812;49.846;9.610;2022-12-07T04:55:29;2.90;99.90
16327;DHT22;34812;49.846;9.610;2022-12-07T04:56:30;2.90;99.90
16327;DHT22;34812;49.846;9.610;2022-12-07T04:57:31;2.90;99.90
16327;DHT22;34812;49.846;9.610;2022-12-07T04:58:33;2.80;99.90
16327;DHT22;34812;49.846;9.610;2022-12-07T04:59:34;2.90;99.90
16327;DHT22;34812;49.846;9.610;2022-12-07T05:00:35;2.80;99.90
16327;DHT22;34812;49.846;9.610;2022-12-07T05:01:36;2.80;99.90
16327;DHT22;34812;49.846;9.610;2022-12-07T05:02:38;2.80;99.90
16327;DHT22;34812;49.846;9.610;2022-12-07T05:03:40;2.80;99.90
16327;DHT22;34812;49.846;9.610;2022-12-07T05:04:42;2.80;99.90
16327;DHT22;34812;49.846;9.610;2022-12-07T05:05:43;2.80;99.90
16327;DHT22;34812;49.846;9.610;2022-12-07T05:06:44;2.70;99.90
16327;DHT22;34812;49.846;9.610;2022-12-07T05:07:45;2.70;99.90
16327;DHT22;34812;49.846;9.610;2022-12-07T05:08:47;2.70;99.90
16327;DHT22;34812;49.846;9.610;2022-12-07T05:09:48;2.70;99.90
16327;DHT22;34812;49.846;9.610;2022-12-07T05:10:49;2.70;99.90
16327;DHT22;34812;49.846;9.610;2022-12-07T05:11:50;2.70;99.90
16327;DHT22;34812;49.846;9.610;2022-12-07T05:12:52;2.70;99.90
16327;DHT22;34812;49.846;9.610;2022-12-07T05:13:53;2.70;99.90
16327;DHT22;34812;49.846;9.610;2022-12-07T05:14:54;2.70;99.90
16327;DHT22;34812;49.846;9.610;2022-12-07T05:15:56;2.70;99.90
16327;DHT22;34812;49.846;9.610;2022-12-07T05:16:57;2.70;99.90
16327;DHT22;34812;49.846;9.610;2022-12-07T05:17:59;2.70;99.90
16327;DHT22;34812;49.846;9.610;2022-12-07T05:19:01;2.60;99.90
16327;DHT22;34812;49.846;9.610;2022-12-07T05:20:04;2.60;99.90
16327;DHT22;34812;49.846;9.610;2022-12-07T05:21:05;2.60;99.90
16327;DHT22;34812;49.846;9.610;2022-12-07T05:22:07;2.60;99.90
16327;DHT22;34812;49.846;9.610;2022-12-07T05:23:10;2.60;99.90
16327;DHT22;34812;49.846;9.610;2022-12-07T05:24:12;2.60;99.90
16327;DHT22;34812;49.846;9.610;2022-12-07T05:25:15;2.60;99.90
16327;DHT22;34812;49.846;9.610;2022-12-07T05:26:15;2.60;99.90
16327;DHT22;34812;49.846;9.610;2022-12-07T05:27:17;2.60;99.90
16327;DHT22;34812;49.846;9.610;2022-12-07T05:28:18;2.60;99.90
16327;DHT22;34812;49.846;9.610;2022-12-07T05:29:20;2.60;99.90
16327;DHT22;34812;49.846;9.610;2022-12-07T05:30:21;2.60;99.90
16327;DHT22;34812;49.846;9.610;2022-12-07T05:31:23;2.60;99.90
16327;DHT22;34812;49.846;9.610;2022-12-07T05:32:24;2.60;99.90
16327;DHT22;34812;49.846;9.610;2022-12-07T05:33:26;2.50;99.90
16327;DHT22;34812;49.846;9.610;2022-12-07T05:34:28;2.60;99.90
16327;DHT22;34812;49.846;9.610;2022-12-07T05:35:30;2.60;99.90
16327;DHT22;34812;49.846;9.610;2022-12-07T05:36:31;2.60;99.90
16327;DHT22;34812;49.846;9.610;2022-12-07T05:37:32;2.60;99.90
16327;DHT22;34812;49.846;9.610;2022-12-07T05:38:34;2.60;99.90
16327;DHT22;34812;49.846;9.610;2022-12-07T05:39:35;2.60;99.90
16327;DHT22;34812;49.846;9.610;2022-12-07T05:40:38;2.60;99.90
16327;DHT22;34812;49.846;9.610;2022-12-07T05:41:39;2.60;99.90
16327;DHT22;34812;49.846;9.610;2022-12-07T05:42:59;2.60;99.90
16327;DHT22;34812;49.846;9.610;2022-12-07T05:44:01;2.60;99.90
16327;DHT22;34812;49.846;9.610;2022-12-07T05:45:02;2.60;99.90
16327;DHT22;34812;49.846;9.610;2022-12-07T05:46:04;2.60;99.90
16327;DHT22;34812;49.846;9.610;2022-12-07T05:47:05;2.60;99.90
16327;DHT22;34812;49.846;9.610;2022-12-07T05:48:07;2.60;99.90
16327;DHT22;34812;49.846;9.610;2022-12-07T05:49:07;2.60;99.90
16327;DHT22;34812;49.846;9.610;2022-12-07T05:50:11;2.60;99.90
16327;DHT22;34812;49.846;9.610;2022-12-07T05:51:12;2.60;99.90
16327;DHT22;34812;49.846;9.610;2022-12-07T05:52:13;2.60;99.90
16327;DHT22;34812;49.846;9.610;2022-12-07T05:53:15;2.60;99.90
16327;DHT22;34812;49.846;9.610;2022-12-07T05:54:16;2.60;99.90
16327;DHT22;34812;49.846;9.610;2022-12-07T05:55:18;2.60;99.90
16327;DHT22;34812;49.846;9.610;2022-12-07T05:56:20;2.60;99.90
16327;DHT22;34812;49.846;9.610;2022-12-07T05:57:20;2.60;99.90
16327;DHT22;34812;49.846;9.610;2022-12-07T05:58:22;2.60;99.90
16327;DHT22;34812;49.846;9.610;2022-12-07T05:59:42;2.60;99.90
16327;DHT22;34812;49.846;9.610;2022-12-07T06:00:42;2.60;99.90
16327;DHT22;34812;49.846;9.610;2022-12-07T06:01:43;2.60;99.90
16327;DHT22;34812;49.846;9.610;2022-12-07T06:02:45;2.60;99.90
16327;DHT22;34812;49.846;9.610;2022-12-07T06:03:47;2.60;99.90
16327;DHT22;34812;49.846;9.610;2022-12-07T06:04:47;2.60;99.90
16327;DHT22;34812;49.846;9.610;2022-12-07T06:05:51;2.60;99.90
16327;DHT22;34812;49.846;9.610;2022-12-07T06:06:53;2.60;99.90
16327;DHT22;34812;49.846;9.610;2022-12-07T06:07:54;2.60;99.90
16327;DHT22;34812;49.846;9.610;2022-12-07T06:08:55;2.60;99.90
16327;DHT22;34812;49.846;9.610;2022-12-07T06:09:57;2.60;99.90
16327;DHT22;34812;49.846;9.610;2022-12-07T06:10:59;2.70;99.90
16327;DHT22;34812;49.846;9.610;2022-12-07T06:12:15;2.60;99.90
16327;DHT22;34812;49.846;9.610;2022-12-07T06:13:34;2.60;99.90
16327;DHT22;34812;49.846;9.610;2022-12-07T06:14:35;2.60;99.90
16327;DHT22;34812;49.846;9.610;2022-12-07T06:15:37;2.70;99.90
16327;DHT22;34812;49.846;9.610;2022-12-07T06:16:38;2.70;99.90
16327;DHT22;34812;49.846;9.610;2022-12-07T06:17:39;2.60;99.90
16327;DHT22;34812;49.846;9.610;2022-12-07T06:18:41;2.70;99.90
16327;DHT22;34812;49.846;9.610;2022-12-07T06:19:42;2.70;99.90
16327;DHT22;34812;49.846;9.610;2022-12-07T06:20:44;2.60;99.90
16327;DHT22;34812;49.846;9.610;2022-12-07T06:21:46;2.70;99.90
16327;DHT22;34812;49.846;9.610;2022-12-07T06:22:48;2.60;99.90
16327;DHT22;34812;49.846;9.610;2022-12-07T06:23:49;2.60;99.90
16327;DHT22;34812;49.846;9.610;2022-12-07T06:24:50;2.60;99.90
16327;DHT22;34812;49.846;9.610;2022-12-07T06:25:52;2.70;99.90
16327;DHT22;34812;49.846;9.610;2022-12-07T06:26:52;2.60;99.90
16327;DHT22;34812;49.846;9.610;2022-12-07T06:27:54;2.60;99.90
16327;DHT22;34812;49.846;9.610;2022-12-07T06:28:56;2.70;99.90
16327;DHT22;34812;49.846;9.610;2022-12-07T06:29:57;2.70;99.90
16327;DHT22;34812;49.846;9.610;2022-12-07T06:30:59;2.70;99.90
16327;DHT22;34812;49.846;9.610;2022-12-07T06:32:00;2.60;99.90
16327;DHT22;34812;49.846;9.610;2022-12-07T06:33:02;2.70;99.90
16327;DHT22;34812;49.846;9.610;2022-12-07T06:34:04;2.60;99.90
16327;DHT22;34812;49.846;9.610;2022-12-07T06:35:06;2.70;99.90
16327;DHT22;34812;49.846;9.610;2022-12-07T06:36:09;2.60;99.90
16327;DHT22;34812;49.846;9.610;2022-12-07T06:37:11;2.70;99.90
16327;DHT22;34812;49.846;9.610;2022-12-07T06:38:13;2.70;99.90
16327;DHT22;34812;49.846;9.610;2022-12-07T06:39:14;2.70;99.90
16327;DHT22;34812;49.846;9.610;2022-12-07T06:40:15;2.70;99.90
16327;DHT22;34812;49.846;9.610;2022-12-07T06:41:16;2.70;99.90
16327;DHT22;34812;49.846;9.610;2022-12-07T06:42:18;2.70;99.90
16327;DHT22;34812;49.846;9.610;2022-12-07T06:43:20;2.70;99.90
16327;DHT22;34812;49.846;9.610;2022-12-07T06:44:22;2.70;99.90
16327;DHT22;34812;49.846;9.610;2022-12-07T06:45:23;2.70;99.90
16327;DHT22;34812;49.846;9.610;2022-12-07T06:46:25;2.70;99.90
16327;DHT22;34812;49.846;9.610;2022-12-07T06:47:27;2.70;99.90
16327;DHT22;34812;49.846;9.610;2022-12-07T06:48:27;2.70;99.90